sensor_id;sensor_type;location;lat;lon;timestamp;P1;P4;P2;P0;N10;N4;N25;N1;N05;TS
81139;SPS30;70624;51.978;5.656;2023-12-20T00:02:18;3.8;3.7;3.5;3.1;;;;4.0;6.0;
81139;SPS30;70624;51.978;5.656;2023-12-20T00:04:48;4.4;4.3;4.1;3.6;;;;4.0;5.0;
81139;SPS30;70624;51.978;5.656;2023-12-20T00:07:17;4.0;3.9;3.8;3.5;;;;4.0;5.0;
81139;SPS30;70624;51.978;5.656;2023-12-20T00:09:45;4.5;4.5;4.2;3.8;;;;4.0;5.0;
81139;SPS30;70624;51.978;5.656;2023-12-20T00:12:14;4.3;4.2;4.0;3.5;;;;4.0;5.0;
81139;SPS30;70624;51.978;5.656;2023-12-20T00:14:42;4.0;3.9;3.7;3.3;;;;4.0;4.0;
81139;SPS30;70624;51.978;5.656;2023-12-20T00:17:11;3.4;3.3;3.0;2.7;;;;4.0;4.0;
81139;SPS30;70624;51.978;5.656;2023-12-20T00:19:40;3.6;3.5;3.3;2.8;;;;4.0;3.0;
81139;SPS30;70624;51.978;5.656;2023-12-20T00:22:10;4.0;3.9;3.7;3.2;;;;4.0;4.0;
81139;SPS30;70624;51.978;5.656;2023-12-20T00:24:41;3.5;3.4;3.2;2.8;;;;4.0;4.0;
81139;SPS30;70624;51.978;5.656;2023-12-20T00:27:09;4.0;3.8;3.6;3.1;;;;5.0;4.0;
81139;SPS30;70624;51.978;5.656;2023-12-20T00:29:38;3.3;3.1;2.9;2.5;;;;5.0;4.0;
81139;SPS30;70624;51.978;5.656;2023-12-20T00:32:09;3.1;3.0;2.7;2.4;;;;5.0;4.0;
81139;SPS30;70624;51.978;5.656;2023-12-20T00:34:38;3.3;3.2;2.9;2.5;;;;5.0;5.0;
81139;SPS30;70624;51.978;5.656;2023-12-20T00:37:06;3.5;3.4;3.2;2.8;;;;5.0;6.0;
81139;SPS30;70624;51.978;5.656;2023-12-20T00:39:35;3.2;3.1;3.0;2.6;;;;5.0;7.0;
81139;SPS30;70624;51.978;5.656;2023-12-20T00:42:03;3.3;3.2;3.0;2.5;;;;5.0;8.0;
81139;SPS30;70624;51.978;5.656;2023-12-20T00:44:32;3.5;3.4;3.2;2.7;;;;4.0;9.0;
81139;SPS30;70624;51.978;5.656;2023-12-20T00:47:00;4.1;4.0;3.7;3.1;;;;4.0;9.0;
81139;SPS30;70624;51.978;5.656;2023-12-20T00:49:29;4.0;3.8;3.5;3.0;;;;4.0;9.0;
81139;SPS30;70624;51.978;5.656;2023-12-20T00:52:09;3.9;3.7;3.3;2.7;;;;4.0;9.0;
81139;SPS30;70624;51.978;5.656;2023-12-20T00:54:43;3.6;3.4;3.1;2.5;;;;4.0;10.0;
81139;SPS30;70624;51.978;5.656;2023-12-20T00:57:13;4.5;4.3;3.8;3.1;;;;4.0;11.0;
81139;SPS30;70624;51.978;5.656;2023-12-20T00:59:45;4.2;4.1;3.7;3.1;;;;4.0;11.0;
81139;SPS30;70624;51.978;5.656;2023-12-20T01:02:13;4.3;4.2;3.8;3.2;;;;4.0;11.0;
81139;SPS30;70624;51.978;5.656;2023-12-20T01:04:42;4.4;4.2;3.8;3.2;;;;4.0;11.0;
81139;SPS30;70624;51.978;5.656;2023-12-20T01:07:11;4.6;4.4;4.1;3.4;;;;4.0;11.0;
81139;SPS30;70624;51.978;5.656;2023-12-20T01:09:40;4.2;4.0;3.8;3.3;;;;5.0;10.0;
81139;SPS30;70624;51.978;5.656;2023-12-20T01:12:11;4.5;4.4;4.1;3.5;;;;5.0;9.0;
81139;SPS30;70624;51.978;5.656;2023-12-20T01:14:39;4.2;4.0;3.6;3.0;;;;5.0;8.0;
81139;SPS30;70624;51.978;5.656;2023-12-20T01:17:08;4.3;4.0;3.6;2.9;;;;5.0;7.0;
81139;SPS30;70624;51.978;5.656;2023-12-20T01:19:36;4.4;4.2;3.8;3.2;;;;5.0;7.0;
81139;SPS30;70624;51.978;5.656;2023-12-20T01:22:05;3.5;3.4;3.1;2.5;;;;5.0;7.0;
81139;SPS30;70624;51.978;5.656;2023-12-20T01:24:33;3.9;3.8;3.5;3.0;;;;5.0;7.0;
81139;SPS30;70624;51.978;5.656;2023-12-20T01:27:04;4.6;4.3;3.8;3.0;;;;5.0;7.0;
81139;SPS30;70624;51.978;5.656;2023-12-20T01:29:33;3.9;3.7;3.2;2.6;;;;6.0;6.0;
81139;SPS30;70624;51.978;5.656;2023-12-20T01:32:01;3.6;3.4;3.0;2.3;;;;6.0;6.0;
81139;SPS30;70624;51.978;5.656;2023-12-20T01:34:30;4.4;4.2;3.7;2.9;;;;6.0;6.0;
81139;SPS30;70624;51.978;5.656;2023-12-20T01:36:58;5.0;4.7;4.0;3.0;;;;6.0;5.0;
81139;SPS30;70624;51.978;5.656;2023-12-20T01:39:27;4.9;4.6;4.0;3.1;;;;6.0;5.0;
81139;SPS30;70624;51.978;5.656;2023-12-20T01:41:55;4.6;4.3;3.8;2.9;;;;6.0;5.0;
81139;SPS30;70624;51.978;5.656;2023-12-20T01:44:24;4.9;4.6;3.9;3.0;;;;6.0;5.0;
81139;SPS30;70624;51.978;5.656;2023-12-20T01:46:53;5.6;5.2;4.4;3.2;;;;7.0;5.0;
81139;SPS30;70624;51.978;5.656;2023-12-20T01:49:21;4.1;3.8;3.1;2.2;;;;7.0;5.0;
81139;SPS30;70624;51.978;5.656;2023-12-20T01:51:51;5.6;5.2;4.3;3.1;;;;7.0;5.0;
81139;SPS30;70624;51.978;5.656;2023-12-20T01:54:20;4.3;4.0;3.3;2.4;;;;7.0;5.0;
81139;SPS30;70624;51.978;5.656;2023-12-20T01:56:50;5.1;4.7;3.9;2.7;;;;7.0;7.0;
81139;SPS30;70624;51.978;5.656;2023-12-20T01:59:19;4.5;4.1;3.5;2.5;;;;7.0;7.0;
81139;SPS30;70624;51.978;5.656;2023-12-20T02:01:49;5.2;4.8;4.0;2.9;;;;7.0;7.0;
81139;SPS30;70624;51.978;5.656;2023-12-20T02:04:18;3.9;3.6;3.0;2.2;;;;7.0;8.0;
81139;SPS30;70624;51.978;5.656;2023-12-20T02:06:47;4.4;4.1;3.4;2.5;;;;7.0;8.0;
81139;SPS30;70624;51.978;5.656;2023-12-20T02:09:20;4.0;3.7;3.1;2.3;;;;7.0;8.0;
81139;SPS30;70624;51.978;5.656;2023-12-20T02:11:50;4.5;4.2;3.6;2.7;;;;7.0;9.0;
81139;SPS30;70624;51.978;5.656;2023-12-20T02:14:18;4.8;4.5;3.8;2.9;;;;7.0;10.0;
81139;SPS30;70624;51.978;5.656;2023-12-20T02:16:47;5.2;4.9;4.2;3.1;;;;7.0;10.0;
81139;SPS30;70624;51.978;5.656;2023-12-20T02:19:16;4.6;4.3;3.6;2.7;;;;7.0;10.0;
81139;SPS30;70624;51.978;5.656;2023-12-20T02:21:47;4.7;4.4;3.7;2.8;;;;7.0;12.0;
81139;SPS30;70624;51.978;5.656;2023-12-20T02:24:16;3.6;3.3;2.8;2.1;;;;6.0;14.0;
81139;SPS30;70624;51.978;5.656;2023-12-20T02:26:45;5.2;4.9;4.0;2.9;;;;6.0;16.0;
81139;SPS30;70624;51.978;5.656;2023-12-20T02:29:14;4.8;4.5;3.8;2.8;;;;6.0;16.0;
81139;SPS30;70624;51.978;5.656;2023-12-20T02:31:42;4.6;4.3;3.6;2.7;;;;6.0;16.0;
81139;SPS30;70624;51.978;5.656;2023-12-20T02:34:11;5.3;4.9;4.0;2.8;;;;6.0;16.0;
81139;SPS30;70624;51.978;5.656;2023-12-20T02:36:39;5.4;5.0;4.1;2.9;;;;6.0;16.0;
81139;SPS30;70624;51.978;5.656;2023-12-20T02:39:08;4.8;4.4;3.6;2.5;;;;6.0;16.0;
81139;SPS30;70624;51.978;5.656;2023-12-20T02:41:36;4.9;4.5;3.7;2.6;;;;6.0;16.0;
81139;SPS30;70624;51.978;5.656;2023-12-20T02:44:05;4.4;4.1;3.4;2.5;;;;6.0;16.0;
81139;SPS30;70624;51.978;5.656;2023-12-20T02:46:33;4.7;4.4;3.7;2.7;;;;6.0;17.0;
81139;SPS30;70624;51.978;5.656;2023-12-20T02:49:02;4.7;4.4;3.7;2.7;;;;6.0;17.0;
81139;SPS30;70624;51.978;5.656;2023-12-20T02:51:30;5.1;4.7;4.0;3.0;;;;6.0;17.0;
81139;SPS30;70624;51.978;5.656;2023-12-20T02:53:58;5.1;4.7;4.0;2.9;;;;6.0;17.0;
81139;SPS30;70624;51.978;5.656;2023-12-20T02:56:27;5.5;5.1;4.3;3.2;;;;6.0;17.0;
81139;SPS30;70624;51.978;5.656;2023-12-20T02:58:55;4.5;4.2;3.6;2.7;;;;5.0;17.0;
81139;SPS30;70624;51.978;5.656;2023-12-20T03:01:24;5.0;4.7;4.0;3.1;;;;5.0;19.0;
81139;SPS30;70624;51.978;5.656;2023-12-20T03:03:52;5.3;5.0;4.3;3.2;;;;5.0;20.0;
81139;SPS30;70624;51.978;5.656;2023-12-20T03:06:21;5.6;5.2;4.4;3.2;;;;5.0;20.0;
81139;SPS30;70624;51.978;5.656;2023-12-20T03:08:49;5.0;4.6;3.9;2.8;;;;5.0;19.0;
81139;SPS30;70624;51.978;5.656;2023-12-20T03:11:18;6.6;6.1;4.9;3.3;;;;5.0;19.0;
81139;SPS30;70624;51.978;5.656;2023-12-20T03:13:46;6.8;6.3;5.2;3.7;;;;5.0;18.0;
81139;SPS30;70624;51.978;5.656;2023-12-20T03:16:15;5.1;4.7;4.0;3.0;;;;5.0;14.0;
81139;SPS30;70624;51.978;5.656;2023-12-20T03:18:44;5.7;5.3;4.5;3.3;;;;5.0;13.0;
81139;SPS30;70624;51.978;5.656;2023-12-20T03:21:14;5.9;5.4;4.5;3.3;;;;6.0;12.0;
81139;SPS30;70624;51.978;5.656;2023-12-20T03:23:43;5.2;4.9;4.1;2.9;;;;6.0;11.0;
81139;SPS30;70624;51.978;5.656;2023-12-20T03:26:11;5.6;5.3;4.5;3.4;;;;6.0;11.0;
81139;SPS30;70624;51.978;5.656;2023-12-20T03:28:40;4.3;4.0;3.4;2.6;;;;6.0;11.0;
81139;SPS30;70624;51.978;5.656;2023-12-20T03:31:11;4.7;4.3;3.7;2.7;;;;6.0;12.0;
81139;SPS30;70624;51.978;5.656;2023-12-20T03:33:39;5.1;4.7;4.0;2.9;;;;6.0;15.0;
81139;SPS30;70624;51.978;5.656;2023-12-20T03:36:09;6.3;5.9;4.9;3.6;;;;6.0;18.0;
81139;SPS30;70624;51.978;5.656;2023-12-20T03:38:38;5.1;4.7;3.9;2.8;;;;6.0;19.0;
81139;SPS30;70624;51.978;5.656;2023-12-20T03:41:06;5.3;5.0;4.3;3.3;;;;6.0;19.0;
81139;SPS30;70624;51.978;5.656;2023-12-20T03:43:35;5.7;5.3;4.4;3.2;;;;6.0;20.0;
81139;SPS30;70624;51.978;5.656;2023-12-20T03:46:04;7.0;6.5;5.3;3.8;;;;5.0;24.0;
81139;SPS30;70624;51.978;5.656;2023-12-20T03:48:33;5.9;5.5;4.6;3.4;;;;5.0;26.0;
81139;SPS30;70624;51.978;5.656;2023-12-20T03:51:01;5.9;5.5;4.7;3.6;;;;5.0;26.0;
81139;SPS30;70624;51.978;5.656;2023-12-20T03:53:30;5.5;5.1;4.3;3.2;;;;5.0;26.0;
81139;SPS30;70624;51.978;5.656;2023-12-20T03:55:58;5.9;5.5;4.7;3.5;;;;5.0;26.0;
81139;SPS30;70624;51.978;5.656;2023-12-20T03:58:27;5.9;5.5;4.7;3.5;;;;5.0;28.0;
81139;SPS30;70624;51.978;5.656;2023-12-20T04:00:55;6.3;5.9;5.0;3.7;;;;5.0;30.0;
81139;SPS30;70624;51.978;5.656;2023-12-20T04:03:24;5.1;4.8;4.0;2.9;;;;5.0;29.0;
81139;SPS30;70624;51.978;5.656;2023-12-20T04:05:52;5.8;5.4;4.4;3.1;;;;5.0;28.0;
81139;SPS30;70624;51.978;5.656;2023-12-20T04:08:21;6.3;5.8;4.8;3.3;;;;5.0;27.0;
81139;SPS30;70624;51.978;5.656;2023-12-20T04:10:49;4.8;4.5;3.8;2.8;;;;5.0;26.0;
81139;SPS30;70624;51.978;5.656;2023-12-20T04:13:18;6.4;5.9;4.8;3.3;;;;5.0;25.0;
81139;SPS30;70624;51.978;5.656;2023-12-20T04:15:46;7.4;6.8;5.4;3.6;;;;5.0;25.0;
81139;SPS30;70624;51.978;5.656;2023-12-20T04:18:17;7.0;6.4;5.1;3.4;;;;5.0;22.0;
81139;SPS30;70624;51.978;5.656;2023-12-20T04:20:45;7.6;6.9;5.5;3.5;;;;5.0;19.0;
81139;SPS30;70624;51.978;5.656;2023-12-20T04:23:15;7.1;6.5;5.1;3.4;;;;5.0;17.0;
81139;SPS30;70624;51.978;5.656;2023-12-20T04:25:44;7.3;6.6;5.2;3.3;;;;5.0;12.0;
81139;SPS30;70624;51.978;5.656;2023-12-20T04:28:13;7.9;7.1;5.5;3.4;;;;5.0;12.0;
81139;SPS30;70624;51.978;5.656;2023-12-20T04:30:42;7.2;6.5;5.1;3.2;;;;5.0;12.0;
81139;SPS30;70624;51.978;5.656;2023-12-20T04:33:10;6.9;6.3;4.9;3.1;;;;6.0;12.0;
81139;SPS30;70624;51.978;5.656;2023-12-20T04:35:39;7.7;7.0;5.5;3.5;;;;6.0;13.0;
81139;SPS30;70624;51.978;5.656;2023-12-20T04:38:09;6.6;6.0;4.8;3.1;;;;6.0;13.0;
81139;SPS30;70624;51.978;5.656;2023-12-20T04:40:37;7.6;6.9;5.5;3.6;;;;6.0;13.0;
81139;SPS30;70624;51.978;5.656;2023-12-20T04:43:07;7.5;6.8;5.3;3.4;;;;6.0;13.0;
81139;SPS30;70624;51.978;5.656;2023-12-20T04:45:35;7.1;6.4;5.1;3.3;;;;6.0;13.0;
81139;SPS30;70624;51.978;5.656;2023-12-20T04:48:05;6.9;6.3;4.9;3.1;;;;6.0;13.0;
81139;SPS30;70624;51.978;5.656;2023-12-20T04:50:36;6.6;6.0;4.6;2.9;;;;6.0;14.0;
81139;SPS30;70624;51.978;5.656;2023-12-20T04:53:04;7.3;6.6;5.2;3.3;;;;6.0;15.0;
81139;SPS30;70624;51.978;5.656;2023-12-20T04:55:33;7.3;6.6;5.2;3.3;;;;6.0;14.0;
81139;SPS30;70624;51.978;5.656;2023-12-20T04:58:01;6.9;6.2;4.8;3.0;;;;6.0;13.0;
81139;SPS30;70624;51.978;5.656;2023-12-20T05:00:30;7.5;6.8;5.3;3.3;;;;6.0;13.0;
81139;SPS30;70624;51.978;5.656;2023-12-20T05:02:58;7.3;6.6;5.2;3.3;;;;6.0;13.0;
81139;SPS30;70624;51.978;5.656;2023-12-20T05:05:27;7.4;6.7;5.2;3.3;;;;6.0;13.0;
81139;SPS30;70624;51.978;5.656;2023-12-20T05:07:55;6.6;6.0;4.7;3.0;;;;5.0;13.0;
81139;SPS30;70624;51.978;5.656;2023-12-20T05:10:23;7.8;7.1;5.5;3.4;;;;5.0;14.0;
81139;SPS30;70624;51.978;5.656;2023-12-20T05:12:53;6.4;5.8;4.6;2.9;;;;5.0;14.0;
81139;SPS30;70624;51.978;5.656;2023-12-20T05:15:21;6.5;5.9;4.7;3.0;;;;5.0;16.0;
81139;SPS30;70624;51.978;5.656;2023-12-20T05:17:50;7.5;6.8;5.3;3.3;;;;5.0;15.0;
81139;SPS30;70624;51.978;5.656;2023-12-20T05:20:18;7.0;6.3;4.9;3.1;;;;5.0;15.0;
81139;SPS30;70624;51.978;5.656;2023-12-20T05:22:47;7.1;6.5;5.0;3.2;;;;5.0;16.0;
81139;SPS30;70624;51.978;5.656;2023-12-20T05:25:15;7.1;6.5;5.1;3.2;;;;5.0;16.0;
81139;SPS30;70624;51.978;5.656;2023-12-20T05:27:44;6.9;6.2;4.9;3.1;;;;5.0;17.0;
81139;SPS30;70624;51.978;5.656;2023-12-20T05:30:12;7.2;6.5;5.0;3.1;;;;5.0;16.0;
81139;SPS30;70624;51.978;5.656;2023-12-20T05:32:41;7.3;6.6;5.2;3.3;;;;5.0;17.0;
81139;SPS30;70624;51.978;5.656;2023-12-20T05:35:10;7.4;6.7;5.3;3.4;;;;5.0;17.0;
81139;SPS30;70624;51.978;5.656;2023-12-20T05:37:41;8.2;7.4;5.7;3.6;;;;5.0;17.0;
81139;SPS30;70624;51.978;5.656;2023-12-20T05:40:10;7.2;6.5;5.1;3.2;;;;5.0;17.0;
81139;SPS30;70624;51.978;5.656;2023-12-20T05:42:39;6.8;6.2;4.8;3.0;;;;5.0;17.0;
81139;SPS30;70624;51.978;5.656;2023-12-20T05:45:08;8.2;7.4;5.7;3.5;;;;5.0;18.0;
81139;SPS30;70624;51.978;5.656;2023-12-20T05:47:37;7.6;6.9;5.3;3.2;;;;5.0;19.0;
81139;SPS30;70624;51.978;5.656;2023-12-20T05:50:06;6.6;6.0;4.6;2.8;;;;5.0;21.0;
81139;SPS30;70624;51.978;5.656;2023-12-20T05:52:35;6.5;5.9;4.6;2.9;;;;5.0;21.0;
81139;SPS30;70624;51.978;5.656;2023-12-20T05:55:04;8.0;7.2;5.5;3.3;;;;4.0;22.0;
81139;SPS30;70624;51.978;5.656;2023-12-20T05:57:32;7.7;7.0;5.4;3.4;;;;4.0;22.0;
81139;SPS30;70624;51.978;5.656;2023-12-20T06:00:00;9.4;8.5;6.6;4.0;;;;4.0;21.0;
81139;SPS30;70624;51.978;5.656;2023-12-20T06:02:29;7.4;6.7;5.2;3.3;;;;4.0;21.0;
81139;SPS30;70624;51.978;5.656;2023-12-20T06:04:58;8.1;7.3;5.7;3.6;;;;4.0;21.0;
81139;SPS30;70624;51.978;5.656;2023-12-20T06:07:27;7.8;7.0;5.4;3.3;;;;4.0;22.0;
81139;SPS30;70624;51.978;5.656;2023-12-20T06:09:56;6.7;6.0;4.7;2.8;;;;4.0;24.0;
81139;SPS30;70624;51.978;5.656;2023-12-20T06:12:25;7.8;7.0;5.4;3.3;;;;4.0;26.0;
81139;SPS30;70624;51.978;5.656;2023-12-20T06:14:55;7.2;6.5;5.0;3.0;;;;4.0;31.0;
81139;SPS30;70624;51.978;5.656;2023-12-20T06:17:25;7.8;7.1;5.5;3.4;;;;4.0;33.0;
81139;SPS30;70624;51.978;5.656;2023-12-20T06:19:56;8.7;7.9;6.0;3.6;;;;4.0;32.0;
81139;SPS30;70624;51.978;5.656;2023-12-20T06:22:25;8.0;7.2;5.4;3.2;;;;4.0;30.0;
81139;SPS30;70624;51.978;5.656;2023-12-20T06:24:54;10.5;9.5;7.3;4.3;;;;4.0;27.0;
81139;SPS30;70624;51.978;5.656;2023-12-20T06:27:22;8.5;7.7;5.8;3.4;;;;4.0;24.0;
81139;SPS30;70624;51.978;5.656;2023-12-20T06:29:51;8.0;7.2;5.5;3.3;;;;4.0;24.0;
81139;SPS30;70624;51.978;5.656;2023-12-20T06:32:19;8.9;8.1;6.2;3.7;;;;4.0;24.0;
81139;SPS30;70624;51.978;5.656;2023-12-20T06:34:49;8.2;7.4;5.7;3.4;;;;4.0;23.0;
81139;SPS30;70624;51.978;5.656;2023-12-20T06:37:18;6.1;5.5;4.3;2.7;;;;4.0;22.0;
81139;SPS30;70624;51.978;5.656;2023-12-20T06:39:46;6.8;6.2;4.8;3.0;;;;4.0;26.0;
81139;SPS30;70624;51.978;5.656;2023-12-20T06:42:16;8.5;7.7;6.1;3.9;;;;4.0;27.0;
81139;SPS30;70624;51.978;5.656;2023-12-20T06:44:45;7.4;6.7;5.2;3.2;;;;4.0;51.0;
81139;SPS30;70624;51.978;5.656;2023-12-20T06:47:13;7.1;6.5;5.0;3.1;;;;4.0;48.0;
81139;SPS30;70624;51.978;5.656;2023-12-20T06:49:43;7.5;6.8;5.4;3.4;;;;4.0;46.0;
81139;SPS30;70624;51.978;5.656;2023-12-20T06:52:14;7.2;6.5;5.2;3.4;;;;4.0;54.0;
81139;SPS30;70624;51.978;5.656;2023-12-20T06:54:42;7.3;6.7;5.4;3.7;;;;3.0;56.0;
81139;SPS30;70624;51.978;5.656;2023-12-20T06:57:11;7.0;6.4;5.3;3.7;;;;3.0;60.0;
81139;SPS30;70624;51.978;5.656;2023-12-20T06:59:40;8.3;7.6;6.0;4.0;;;;3.0;67.0;
81139;SPS30;70624;51.978;5.656;2023-12-20T07:02:10;8.1;7.3;5.7;3.6;;;;3.0;74.0;
81139;SPS30;70624;51.978;5.656;2023-12-20T07:04:40;6.4;5.8;4.7;3.1;;;;3.0;80.0;
81139;SPS30;70624;51.978;5.656;2023-12-20T07:07:09;8.8;8.1;6.4;4.1;;;;3.0;81.0;
81139;SPS30;70624;51.978;5.656;2023-12-20T07:09:37;8.9;8.1;6.4;4.1;;;;3.0;83.0;
81139;SPS30;70624;51.978;5.656;2023-12-20T07:12:08;8.9;8.0;6.2;3.9;;;;3.0;83.0;
81139;SPS30;70624;51.978;5.656;2023-12-20T07:14:37;7.6;6.9;5.4;3.5;;;;3.0;90.0;
81139;SPS30;70624;51.978;5.656;2023-12-20T07:17:05;6.9;6.3;5.0;3.4;;;;3.0;97.0;
81139;SPS30;70624;51.978;5.656;2023-12-20T07:19:39;8.0;7.3;5.8;3.7;;;;3.0;93.0;
81139;SPS30;70624;51.978;5.656;2023-12-20T07:22:08;9.3;8.4;6.5;4.0;;;;3.0;96.0;
81139;SPS30;70624;51.978;5.656;2023-12-20T07:24:36;8.9;8.1;6.3;3.9;;;;3.0;135.0;
81139;SPS30;70624;51.978;5.656;2023-12-20T07:27:05;8.8;8.0;6.3;4.0;;;;3.0;114.0;
81139;SPS30;70624;51.978;5.656;2023-12-20T07:29:33;8.7;7.9;6.1;3.9;;;;3.0;111.0;
81139;SPS30;70624;51.978;5.656;2023-12-20T07:32:02;5.6;5.2;4.2;2.9;;;;3.0;284.0;
81139;SPS30;70624;51.978;5.656;2023-12-20T07:34:30;6.5;5.9;4.8;3.2;;;;2.0;235.0;
81139;SPS30;70624;51.978;5.656;2023-12-20T07:36:59;8.0;7.4;5.9;3.9;;;;2.0;218.0;
81139;SPS30;70624;51.978;5.656;2023-12-20T07:39:27;6.4;5.9;4.8;3.4;;;;2.0;193.0;
81139;SPS30;70624;51.978;5.656;2023-12-20T07:41:55;6.9;6.3;5.2;3.5;;;;2.0;156.0;
81139;SPS30;70624;51.978;5.656;2023-12-20T07:44:26;8.3;7.5;5.8;3.6;;;;2.0;125.0;
81139;SPS30;70624;51.978;5.656;2023-12-20T07:46:54;8.9;8.1;6.3;3.9;;;;2.0;112.0;
81139;SPS30;70624;51.978;5.656;2023-12-20T07:49:23;7.0;6.3;5.0;3.3;;;;2.0;116.0;
81139;SPS30;70624;51.978;5.656;2023-12-20T07:51:52;6.6;6.1;5.0;3.5;;;;2.0;103.0;
81139;SPS30;70624;51.978;5.656;2023-12-20T07:54:21;7.2;6.6;5.4;3.7;;;;2.0;118.0;
81139;SPS30;70624;51.978;5.656;2023-12-20T07:56:51;6.4;5.9;4.8;3.4;;;;2.0;114.0;
81139;SPS30;70624;51.978;5.656;2023-12-20T07:59:20;7.7;7.0;5.6;3.7;;;;2.0;107.0;
81139;SPS30;70624;51.978;5.656;2023-12-20T08:01:48;6.8;6.2;5.0;3.2;;;;2.0;97.0;
81139;SPS30;70624;51.978;5.656;2023-12-20T08:04:17;7.7;7.0;5.5;3.4;;;;2.0;99.0;
81139;SPS30;70624;51.978;5.656;2023-12-20T08:06:45;7.3;6.7;5.2;3.3;;;;2.0;98.0;
81139;SPS30;70624;51.978;5.656;2023-12-20T08:09:13;7.7;6.9;5.3;3.2;;;;2.0;90.0;
81139;SPS30;70624;51.978;5.656;2023-12-20T08:11:43;6.8;6.2;4.9;3.1;;;;2.0;85.0;
81139;SPS30;70624;51.978;5.656;2023-12-20T08:14:12;7.7;7.0;5.6;3.7;;;;2.0;87.0;
81139;SPS30;70624;51.978;5.656;2023-12-20T08:16:41;6.8;6.2;4.9;3.2;;;;2.0;90.0;
81139;SPS30;70624;51.978;5.656;2023-12-20T08:19:09;7.1;6.5;5.1;3.3;;;;2.0;91.0;
81139;SPS30;70624;51.978;5.656;2023-12-20T08:21:40;7.2;6.5;5.1;3.2;;;;2.0;83.0;
81139;SPS30;70624;51.978;5.656;2023-12-20T08:24:09;7.3;6.6;5.2;3.3;;;;2.0;85.0;
81139;SPS30;70624;51.978;5.656;2023-12-20T08:26:37;7.7;7.0;5.6;3.6;;;;2.0;83.0;
81139;SPS30;70624;51.978;5.656;2023-12-20T08:29:06;7.3;6.6;5.2;3.3;;;;2.0;92.0;
81139;SPS30;70624;51.978;5.656;2023-12-20T08:31:34;8.2;7.5;6.0;3.9;;;;2.0;95.0;
81139;SPS30;70624;51.978;5.656;2023-12-20T08:34:05;7.1;6.5;5.2;3.4;;;;2.0;91.0;
81139;SPS30;70624;51.978;5.656;2023-12-20T08:36:33;8.1;7.3;5.8;3.7;;;;2.0;83.0;
81139;SPS30;70624;51.978;5.656;2023-12-20T08:39:02;8.3;7.5;5.8;3.5;;;;2.0;75.0;
81139;SPS30;70624;51.978;5.656;2023-12-20T08:41:33;7.6;6.8;5.3;3.3;;;;2.0;77.0;
81139;SPS30;70624;51.978;5.656;2023-12-20T08:44:02;7.6;6.8;5.3;3.3;;;;2.0;79.0;
81139;SPS30;70624;51.978;5.656;2023-12-20T08:46:31;9.1;8.2;6.4;4.0;;;;2.0;95.0;
81139;SPS30;70624;51.978;5.656;2023-12-20T08:49:00;7.9;7.2;5.6;3.6;;;;2.0;90.0;
81139;SPS30;70624;51.978;5.656;2023-12-20T08:51:28;7.7;7.0;5.6;3.7;;;;2.0;97.0;
81139;SPS30;70624;51.978;5.656;2023-12-20T08:53:57;7.1;6.4;5.0;3.2;;;;2.0;107.0;
81139;SPS30;70624;51.978;5.656;2023-12-20T08:56:28;7.6;6.9;5.4;3.3;;;;2.0;104.0;
81139;SPS30;70624;51.978;5.656;2023-12-20T08:58:56;7.8;7.1;5.5;3.4;;;;2.0;102.0;
81139;SPS30;70624;51.978;5.656;2023-12-20T09:01:24;7.9;7.2;5.5;3.4;;;;2.0;101.0;
81139;SPS30;70624;51.978;5.656;2023-12-20T09:03:53;9.1;8.1;6.2;3.6;;;;2.0;101.0;
81139;SPS30;70624;51.978;5.656;2023-12-20T09:06:21;8.1;7.3;5.6;3.4;;;;2.0;98.0;
81139;SPS30;70624;51.978;5.656;2023-12-20T09:08:52;7.7;6.9;5.3;3.2;;;;2.0;94.0;
81139;SPS30;70624;51.978;5.656;2023-12-20T09:11:20;9.2;8.2;6.2;3.6;;;;2.0;93.0;
81139;SPS30;70624;51.978;5.656;2023-12-20T09:13:48;9.0;8.1;6.2;3.6;;;;2.0;93.0;
81139;SPS30;70624;51.978;5.656;2023-12-20T09:16:17;8.6;7.8;5.9;3.5;;;;2.0;96.0;
81139;SPS30;70624;51.978;5.656;2023-12-20T09:18:46;7.5;6.7;5.2;3.1;;;;2.0;134.0;
81139;SPS30;70624;51.978;5.656;2023-12-20T09:21:14;7.8;7.0;5.4;3.3;;;;2.0;116.0;
81139;SPS30;70624;51.978;5.656;2023-12-20T09:23:43;9.2;8.3;6.4;3.8;;;;2.0;113.0;
81139;SPS30;70624;51.978;5.656;2023-12-20T09:26:11;7.4;6.7;5.2;3.2;;;;2.0;119.0;
81139;SPS30;70624;51.978;5.656;2023-12-20T09:28:42;7.1;6.4;5.0;3.1;;;;2.0;121.0;
81139;SPS30;70624;51.978;5.656;2023-12-20T09:31:10;6.9;6.2;4.9;3.1;;;;2.0;107.0;
81139;SPS30;70624;51.978;5.656;2023-12-20T09:33:39;8.2;7.4;5.8;3.6;;;;2.0;93.0;
81139;SPS30;70624;51.978;5.656;2023-12-20T09:36:07;8.0;7.3;5.8;3.7;;;;2.0;115.0;
81139;SPS30;70624;51.978;5.656;2023-12-20T09:38:36;7.4;6.7;5.2;3.2;;;;2.0;112.0;
81139;SPS30;70624;51.978;5.656;2023-12-20T09:41:04;6.9;6.3;4.9;3.1;;;;2.0;107.0;
81139;SPS30;70624;51.978;5.656;2023-12-20T09:43:35;8.6;7.7;5.9;3.6;;;;2.0;124.0;
81139;SPS30;70624;51.978;5.656;2023-12-20T09:46:06;7.0;6.3;5.0;3.2;;;;2.0;131.0;
81139;SPS30;70624;51.978;5.656;2023-12-20T09:48:35;9.3;8.4;6.4;3.9;;;;2.0;124.0;
81139;SPS30;70624;51.978;5.656;2023-12-20T09:51:06;8.5;7.6;5.8;3.5;;;;2.0;104.0;
81139;SPS30;70624;51.978;5.656;2023-12-20T09:53:35;8.9;8.1;6.2;3.7;;;;2.0;106.0;
81139;SPS30;70624;51.978;5.656;2023-12-20T09:56:06;7.5;6.8;5.3;3.3;;;;2.0;106.0;
81139;SPS30;70624;51.978;5.656;2023-12-20T09:58:37;8.6;7.8;6.1;3.9;;;;2.0;105.0;
81139;SPS30;70624;51.978;5.656;2023-12-20T10:01:07;8.4;7.7;6.0;3.8;;;;2.0;131.0;
81139;SPS30;70624;51.978;5.656;2023-12-20T10:03:36;7.7;7.0;5.6;3.6;;;;2.0;133.0;
81139;SPS30;70624;51.978;5.656;2023-12-20T10:06:09;8.0;7.3;5.9;4.0;;;;2.0;128.0;
81139;SPS30;70624;51.978;5.656;2023-12-20T10:08:38;7.1;6.5;5.3;3.5;;;;2.0;126.0;
81139;SPS30;70624;51.978;5.656;2023-12-20T10:11:07;7.6;7.0;5.6;3.8;;;;2.0;122.0;
81139;SPS30;70624;51.978;5.656;2023-12-20T10:13:40;7.0;6.4;5.2;3.5;;;;1.0;122.0;
81139;SPS30;70624;51.978;5.656;2023-12-20T10:16:09;7.0;6.4;5.1;3.3;;;;1.0;123.0;
81139;SPS30;70624;51.978;5.656;2023-12-20T10:18:38;6.8;6.2;5.0;3.3;;;;1.0;132.0;
81139;SPS30;70624;51.978;5.656;2023-12-20T10:21:07;6.9;6.2;4.9;3.2;;;;1.0;134.0;
81139;SPS30;70624;51.978;5.656;2023-12-20T10:23:37;6.7;6.1;4.8;3.1;;;;1.0;143.0;
81139;SPS30;70624;51.978;5.656;2023-12-20T10:26:07;7.1;6.4;5.1;3.3;;;;1.0;146.0;
81139;SPS30;70624;51.978;5.656;2023-12-20T10:28:35;7.9;7.1;5.5;3.4;;;;1.0;143.0;
81139;SPS30;70624;51.978;5.656;2023-12-20T10:31:04;8.3;7.6;6.0;3.8;;;;1.0;169.0;
81139;SPS30;70624;51.978;5.656;2023-12-20T10:33:32;8.8;8.0;6.4;4.2;;;;1.0;178.0;
81139;SPS30;70624;51.978;5.656;2023-12-20T10:36:01;6.1;5.6;4.6;3.1;;;;1.0;167.0;
81139;SPS30;70624;51.978;5.656;2023-12-20T10:38:30;6.5;5.9;4.7;3.0;;;;1.0;157.0;
81139;SPS30;70624;51.978;5.656;2023-12-20T10:40:58;6.0;5.5;4.4;2.9;;;;1.0;138.0;
81139;SPS30;70624;51.978;5.656;2023-12-20T10:43:29;7.8;7.1;5.6;3.5;;;;1.0;130.0;
81139;SPS30;70624;51.978;5.656;2023-12-20T10:46:00;7.6;6.9;5.4;3.4;;;;1.0;126.0;
81139;SPS30;70624;51.978;5.656;2023-12-20T10:48:31;7.0;6.4;5.0;3.2;;;;1.0;136.0;
81139;SPS30;70624;51.978;5.656;2023-12-20T10:51:00;8.6;7.8;6.2;4.1;;;;1.0;147.0;
81139;SPS30;70624;51.978;5.656;2023-12-20T10:53:29;6.5;5.9;4.8;3.2;;;;1.0;137.0;
81139;SPS30;70624;51.978;5.656;2023-12-20T10:56:02;6.8;6.2;5.0;3.3;;;;1.0;135.0;
81139;SPS30;70624;51.978;5.656;2023-12-20T10:58:32;7.5;6.8;5.3;3.4;;;;1.0;117.0;
81139;SPS30;70624;51.978;5.656;2023-12-20T11:01:04;8.1;7.3;5.7;3.5;;;;1.0;117.0;
81139;SPS30;70624;51.978;5.656;2023-12-20T11:03:34;7.6;6.9;5.3;3.2;;;;1.0;109.0;
81139;SPS30;70624;51.978;5.656;2023-12-20T11:06:05;7.4;6.7;5.2;3.2;;;;1.0;107.0;
81139;SPS30;70624;51.978;5.656;2023-12-20T11:08:44;7.6;6.9;5.4;3.4;;;;1.0;92.0;
81139;SPS30;70624;51.978;5.656;2023-12-20T11:11:20;6.9;6.2;4.9;3.0;;;;1.0;95.0;
81139;SPS30;70624;51.978;5.656;2023-12-20T11:13:55;6.1;5.5;4.3;2.8;;;;1.0;76.0;
81139;SPS30;70624;51.978;5.656;2023-12-20T11:16:28;6.2;5.6;4.4;2.8;;;;1.0;72.0;
81139;SPS30;70624;51.978;5.656;2023-12-20T11:18:59;7.4;6.6;5.1;3.1;;;;1.0;80.0;
81139;SPS30;70624;51.978;5.656;2023-12-20T11:21:33;6.8;6.1;4.7;2.9;;;;1.0;82.0;
81139;SPS30;70624;51.978;5.656;2023-12-20T11:24:02;8.8;8.0;6.4;4.2;;;;1.0;172.0;
81139;SPS30;70624;51.978;5.656;2023-12-20T11:26:33;7.1;6.5;5.2;3.5;;;;1.0;179.0;
81139;SPS30;70624;51.978;5.656;2023-12-20T11:32:02;7.2;6.6;5.2;3.5;;;;1.0;123.0;
81139;SPS30;70624;51.978;5.656;2023-12-20T11:34:33;5.8;5.3;4.3;2.9;;;;1.0;104.0;
81139;SPS30;70624;51.978;5.656;2023-12-20T11:37:03;5.5;5.0;4.0;2.6;;;;1.0;93.0;
81139;SPS30;70624;51.978;5.656;2023-12-20T11:39:32;5.9;5.4;4.3;2.8;;;;1.0;84.0;
81139;SPS30;70624;51.978;5.656;2023-12-20T11:42:05;6.6;6.0;4.7;3.1;;;;1.0;81.0;
81139;SPS30;70624;51.978;5.656;2023-12-20T11:44:35;6.8;6.2;4.9;3.3;;;;1.0;67.0;
81139;SPS30;70624;51.978;5.656;2023-12-20T11:47:04;7.3;6.6;5.2;3.4;;;;1.0;63.0;
81139;SPS30;70624;51.978;5.656;2023-12-20T11:49:33;6.1;5.5;4.3;2.8;;;;1.0;65.0;
81139;SPS30;70624;51.978;5.656;2023-12-20T11:52:01;5.6;5.1;4.0;2.5;;;;1.0;66.0;
81139;SPS30;70624;51.978;5.656;2023-12-20T11:54:31;6.9;6.2;4.8;2.9;;;;1.0;70.0;
81139;SPS30;70624;51.978;5.656;2023-12-20T11:57:00;5.4;4.9;3.8;2.4;;;;1.0;48.0;
81139;SPS30;70624;51.978;5.656;2023-12-20T11:59:28;5.0;4.5;3.4;2.1;;;;1.0;55.0;
81139;SPS30;70624;51.978;5.656;2023-12-20T12:01:58;5.3;4.8;3.7;2.3;;;;1.0;52.0;
81139;SPS30;70624;51.978;5.656;2023-12-20T12:04:29;6.7;6.1;4.7;2.9;;;;1.0;41.0;
81139;SPS30;70624;51.978;5.656;2023-12-20T12:06:57;6.5;5.9;4.7;3.0;;;;1.0;41.0;
81139;SPS30;70624;51.978;5.656;2023-12-20T12:09:26;6.3;5.7;4.6;3.0;;;;1.0;45.0;
81139;SPS30;70624;51.978;5.656;2023-12-20T12:11:54;8.8;8.0;6.3;4.0;;;;1.0;46.0;
81139;SPS30;70624;51.978;5.656;2023-12-20T12:14:23;6.3;5.7;4.5;2.9;;;;1.0;52.0;
81139;SPS30;70624;51.978;5.656;2023-12-20T12:16:52;6.0;5.5;4.4;2.9;;;;1.0;57.0;
81139;SPS30;70624;51.978;5.656;2023-12-20T12:19:21;5.4;4.9;3.9;2.5;;;;1.0;66.0;
81139;SPS30;70624;51.978;5.656;2023-12-20T12:21:50;5.8;5.3;4.2;2.8;;;;1.0;82.0;
81139;SPS30;70624;51.978;5.656;2023-12-20T12:24:21;6.0;5.4;4.3;2.8;;;;1.0;82.0;